Terminal Aerodrome Forecast
Issued by NWS

Home | Current Version | Previous Version | Text Only | Print | Product List | Glossary On
Versions: 1 2 3 4 5 6 7 8 9 10 11 12 13 14 15 16 17 18
000
FTAK31 PAJN 020500
TAFAJN
TAF
PAJN 020520Z 0206/0306 13015G25KT 6SM -RA FEW030 BKN050 OVC100
      WS020/12025KT
     FM020900 11020G30KT 5SM -RA BR SCT015 OVC025 WS020/14030KT
     FM021200 12022G32KT 6SM -RA BKN025 OVC050 WS020/14030KT
     FM022000 12012G22KT P6SM -SHRA BKN025 OVC050=

USA.gov is the U.S. government's official web portal to all federal, state and local government web resources and services.